Terminal Aerodrome Forecast
Issued by NWS Cleveland, OH

Home | Current Version | Previous Version | Graphics & Text | Print | Product List | Glossary On
Versions: 1 2 3 4 5 6 7 8 9 10 11 12 13 14 15 16 17 18 19 20 21 22 23 24 25
000
FTUS41 KCLE 172320
TAFCLE
TAF
KCLE 172320Z 1800/1906 19008KT P6SM OVC120
     FM180400 21008KT P6SM OVC045
     FM180900 21009KT 6SM BR OVC035
      TEMPO 1810/1814 4SM BR BKN012
     FM181600 21011KT 6SM BR OVC012
     FM181800 22012G16KT P6SM OVC012
     FM190100 22011KT 5SM BR BKN008=

USA.gov is the U.S. government's official web portal to all federal, state and local government web resources and services.